Terminal Aerodrome Forecast
Issued by NWS Charleston, WV

Home | Current Version | Previous Version | Text Only | Print | Product List | Glossary On
Versions: 1 2 3 4 5 6 7 8 9 10 11 12 13 14 15 16 17 18 19 20 21 22 23 24 25 26 27 28 29
000
FTUS41 KRLX 302300
TAFHTS
TAF
KHTS 302339Z 3100/3124 VRB06KT P6SM VCTS SCT030CB
     FM310300 00000KT P6SM SCT050
     FM310400 00000KT 4SM BR SCT050
     FM310600 00000KT 2SM BR SCT250
     FM310800 00000KT 1/4SM FG VV001
     FM311300 00000KT 1/2SM FG OVC001
     FM311400 00000KT 2SM BR BKN002=

USA.gov is the U.S. government's official web portal to all federal, state and local government web resources and services.